Airfield :
LOGIN :

Register | Disclaimer

   EN    FR    IT 

 










Legend :    VFR   Marginal VFR   IFR   Intensive IFR   Very Intensive IFR
Visi :
Ceiling :
>= 8 km
>= 3000ft
5 to 8 km
1000 to 3000 ft
1500m to 5 km
500 to 1000 ft
800 to 1500m
200 to 500 ft
< 800m
< 200 ft
Symbols :   Thunderstorms  Fog  Heavy snow  Heavy precipitations  Wind > 20 kt
SIGMETs :     Misc.  Thunderstorms  Icing  Turbulence  Mountain Waves  Volcanic Ashes






- Airport Elevation : 218 ft


EGYD - RAF Cranwell

CURRENT METAR :
  • 241322Z 26007KT 8000 HZ FEW007 BKN025 08/06 Q1021 TEMPO 7000 BKN024 RMK BLU TEMPO WHT

EXPIRED METARs :
  • 241250Z 26008KT 6000 HZ FEW007 BKN024 08/07 Q1021 TEMPO BKN025 RMK WHT TEMPO WHT
  • 241220Z 26008KT 6000 HZ BKN024 08/06 Q1021 TEMPO BKN025 RMK WHT TEMPO BLU
  • 241150Z 26008KT 6000 HZ FEW016 BKN025 08/06 Q1022 BECMG 8000 RMK WHT BECMG BLU
  • 241120Z 26008KT 5000 HZ FEW018 BKN025 07/06 Q1022 BECMG 8000 RMK WHT BECMG BLU
  • 241050Z 25008KT 5000 HZ FEW018 BKN025 07/06 Q1022 BECMG 8000 RMK WHT BECMG BLU

TAF AMD TAF EGYD
Valid from the 24 at 12:00 until the 24 at 18:00 UTC


241159Z 2412/2418 27008KT 6000 HZ BKN025
TEMPO 2412/2418 BKN022
PROB40 2412/2416 8000
PROB40
TEMPO 2412/2416 SCT008



MET'MAP, your aeronautical weather chart ! - Copyright ORBIFLY December 2007 - Disclaimer

ORBIFLY MET'MAP TEAM :

Programming & Development : Alexandra Zaïnal
Concept & original design : Baudouin d'Aumeries
Assistance for programming : Marc-Olivier Méhu
Technical & hardware support : Manuel Goepfert

Contact : metmap@orbifly.com




SOURCES & CREDITS :

   NOAA